createdAt,value
2018-04-11T00:00:21.514Z,82.63
2018-04-11T00:01:21.525Z,81.68
2018-04-11T00:02:21.518Z,81.72
2018-04-11T00:03:21.552Z,81.85
2018-04-11T00:04:21.520Z,81.14
2018-04-11T00:05:21.519Z,81.21
2018-04-11T00:06:21.569Z,81.05
2018-04-11T00:07:21.533Z,81.49
2018-04-11T00:08:21.586Z,81.01
2018-04-11T00:09:21.552Z,81.58
2018-04-11T00:10:21.559Z,80.78
2018-04-11T00:11:21.579Z,81.04
2018-04-11T00:12:21.548Z,81.18
2018-04-11T00:13:21.576Z,81.69
2018-04-11T00:14:21.601Z,81.33
2018-04-11T00:15:21.550Z,82.23
2018-04-11T00:16:21.583Z,81.08
2018-04-11T00:17:21.567Z,81.62
2018-04-11T00:18:21.559Z,82.05
2018-04-11T00:19:21.559Z,81.94
2018-04-11T00:20:21.587Z,83.04
2018-04-11T00:21:21.582Z,83.3
2018-04-11T00:22:21.602Z,82.45
2018-04-11T00:23:21.620Z,81.95
2018-04-11T00:24:21.610Z,81.5
2018-04-11T00:25:21.679Z,81.67
2018-04-11T00:26:21.608Z,81.44
2018-04-11T00:27:21.614Z,81.69
2018-04-11T00:28:21.652Z,81.49
2018-04-11T00:29:21.661Z,80.77
2018-04-11T00:30:21.608Z,81.68
2018-04-11T00:31:21.629Z,81.45
2018-04-11T00:32:21.618Z,82.17
2018-04-11T00:33:21.687Z,81.26
2018-04-11T00:34:21.627Z,82.48
2018-04-11T00:35:21.789Z,82.49
2018-04-11T00:36:21.636Z,82.36
2018-04-11T00:37:21.609Z,82.23
2018-04-11T00:38:21.646Z,81.76
2018-04-11T00:39:21.630Z,81.6
2018-04-11T00:40:21.617Z,82.86
2018-04-11T00:41:21.679Z,81.91
2018-04-11T00:42:21.632Z,81.39
2018-04-11T00:43:21.640Z,82.95
2018-04-11T00:44:21.802Z,82.01
2018-04-11T00:45:21.750Z,81.48
2018-04-11T00:46:21.827Z,81.33
2018-04-11T00:47:21.644Z,81.3
2018-04-11T00:48:21.670Z,81.77
2018-04-11T00:49:21.677Z,81.75
2018-04-11T00:50:21.685Z,81.56
2018-04-11T00:51:21.660Z,81.5
2018-04-11T00:52:21.707Z,82.37
2018-04-11T00:53:21.724Z,82.26
2018-04-11T00:54:21.764Z,81.72
2018-04-11T00:55:21.674Z,81.99
2018-04-11T00:56:21.833Z,83.18
2018-04-11T00:57:21.675Z,83.07
2018-04-11T00:58:21.717Z,82.26
2018-04-11T00:59:21.705Z,82.85
2018-04-11T01:00:21.694Z,82.33
2018-04-11T01:01:21.682Z,82.13
2018-04-11T01:02:21.679Z,82.53
2018-04-11T01:03:21.688Z,81.97
2018-04-11T01:04:21.717Z,81.83
2018-04-11T01:05:24.000Z,81.89
2018-04-11T01:06:21.704Z,82.27
2018-04-11T01:07:21.684Z,82.21
2018-04-11T01:08:21.746Z,82.06
2018-04-11T01:09:21.698Z,82.79
2018-04-11T01:10:21.704Z,82.66
2018-04-11T01:11:21.698Z,82.22
2018-04-11T01:12:21.706Z,81.55
2018-04-11T01:13:21.710Z,81.78
2018-04-11T01:14:21.729Z,81.49
2018-04-11T01:15:21.719Z,82.79
2018-04-11T01:16:21.766Z,82.47
2018-04-11T01:17:21.743Z,82.68
2018-04-11T01:18:21.744Z,82.16
2018-04-11T01:19:21.746Z,81.76
2018-04-11T01:20:21.733Z,82.08
2018-04-11T01:21:21.761Z,82.86
2018-04-11T01:22:21.777Z,82.01
2018-04-11T01:23:21.752Z,82.03
2018-04-11T01:24:21.849Z,83.14
2018-04-11T01:25:21.739Z,83.1
2018-04-11T01:26:21.776Z,82.79
2018-04-11T01:27:21.764Z,82.42
2018-04-11T01:28:21.893Z,82.22
2018-04-11T01:29:21.773Z,81.63
2018-04-11T01:30:21.752Z,81.42
2018-04-11T01:31:21.779Z,81.35
2018-04-11T01:32:21.779Z,81.37
2018-04-11T01:33:21.787Z,83.14
2018-04-11T01:34:21.803Z,82.41
2018-04-11T01:35:21.800Z,83.56
2018-04-11T01:36:21.792Z,83.42
2018-04-11T01:37:21.813Z,83.31
2018-04-11T01:38:21.912Z,83.06
2018-04-11T01:39:21.814Z,82.41
2018-04-11T01:40:21.802Z,82.37
2018-04-11T01:41:21.801Z,82.58
2018-04-11T01:42:22.060Z,82.69
2018-04-11T01:43:21.870Z,82.45
2018-04-11T01:44:21.831Z,82.53
2018-04-11T01:45:21.819Z,83.03
2018-04-11T01:46:21.874Z,83.41
2018-04-11T01:47:21.834Z,82.63
2018-04-11T01:48:21.842Z,82.61
2018-04-11T01:49:21.819Z,82.12
2018-04-11T01:50:22.002Z,81.91
2018-04-11T01:51:21.835Z,81.94
2018-04-11T01:52:21.882Z,82.53
2018-04-11T01:53:21.843Z,81.92
2018-04-11T01:54:21.844Z,82.96
2018-04-11T01:55:21.863Z,83.14
2018-04-11T01:56:21.864Z,82.85
2018-04-11T01:57:21.843Z,82.44
2018-04-11T01:58:21.868Z,82.47
2018-04-11T01:59:21.865Z,82.31
2018-04-11T02:00:21.869Z,82.82
2018-04-11T02:01:21.863Z,82.97
2018-04-11T02:02:21.872Z,82.9
2018-04-11T02:03:21.858Z,83.25
2018-04-11T02:04:21.932Z,82.97
2018-04-11T02:05:22.001Z,82.66
2018-04-11T02:06:21.890Z,82.86
2018-04-11T02:07:21.975Z,83.21
2018-04-11T02:08:21.907Z,82.6
2018-04-11T02:09:21.902Z,82.95
2018-04-11T02:10:21.898Z,83.57
2018-04-11T02:11:21.908Z,82.76
2018-04-11T02:12:21.922Z,83.36
2018-04-11T02:13:21.895Z,83.13
2018-04-11T02:14:21.916Z,83.24
2018-04-11T02:15:21.942Z,82.62
2018-04-11T02:16:21.944Z,82.42
2018-04-11T02:17:21.907Z,82.56
2018-04-11T02:18:21.935Z,82.91
2018-04-11T02:19:21.918Z,82.93
2018-04-11T02:20:22.058Z,82.53
2018-04-11T02:21:21.931Z,82.85
2018-04-11T02:22:21.934Z,82.88
2018-04-11T02:23:21.905Z,82.54
2018-04-11T02:24:21.919Z,82.22
2018-04-11T02:25:21.956Z,82.36
2018-04-11T02:26:21.941Z,82.61
2018-04-11T02:27:21.927Z,82.8
2018-04-11T02:28:21.953Z,82.04
2018-04-11T02:29:21.978Z,82.44
2018-04-11T02:30:22.030Z,82.76
2018-04-11T02:31:21.964Z,82.6
2018-04-11T02:32:21.963Z,82.26
2018-04-11T02:33:21.957Z,82.95
2018-04-11T02:34:22.065Z,83.28
2018-04-11T02:35:21.979Z,82.6
2018-04-11T02:36:21.993Z,82.39
2018-04-11T02:37:22.030Z,82.63
2018-04-11T02:38:22.079Z,83.5
2018-04-11T02:39:21.987Z,82.87
2018-04-11T02:40:22.027Z,82.92
2018-04-11T02:41:22.043Z,83.4
2018-04-11T02:42:22.023Z,83.79
2018-04-11T02:43:21.986Z,83.85
2018-04-11T02:44:21.983Z,82.97
2018-04-11T02:45:22.000Z,82.78
2018-04-11T02:46:21.990Z,83.77
2018-04-11T02:47:22.012Z,82.94
2018-04-11T02:48:22.011Z,82.53
2018-04-11T02:49:21.999Z,82.53
2018-04-11T02:50:22.031Z,83.12
2018-04-11T02:51:22.041Z,83.03
2018-04-11T02:52:22.020Z,83.8
2018-04-11T02:53:22.018Z,82.99
2018-04-11T02:54:22.032Z,82.65
2018-04-11T02:55:22.028Z,82.83
2018-04-11T02:56:22.027Z,82.15
2018-04-11T02:57:22.177Z,82.63
2018-04-11T02:58:22.025Z,82.71
2018-04-11T02:59:22.034Z,83.19
2018-04-11T03:00:22.084Z,83.25
2018-04-11T03:01:22.046Z,83.21
2018-04-11T03:02:22.049Z,83
2018-04-11T03:03:22.133Z,82.31
2018-04-11T03:04:22.061Z,82.63
2018-04-11T03:05:22.057Z,82.84
2018-04-11T03:06:22.280Z,82.94
2018-04-11T03:07:22.118Z,82.89
2018-04-11T03:08:22.058Z,83.06
2018-04-11T03:09:22.271Z,82.44
2018-04-11T03:10:22.075Z,82.53
2018-04-11T03:11:22.203Z,82.72
2018-04-11T03:12:22.079Z,82.75
2018-04-11T03:13:22.073Z,82.89
2018-04-11T03:14:22.068Z,82.93
2018-04-11T03:15:22.105Z,82.59
2018-04-11T03:16:22.081Z,83.13
2018-04-11T03:17:22.094Z,83
2018-04-11T03:18:22.093Z,82.88
2018-04-11T03:19:22.163Z,83.63
2018-04-11T03:20:22.102Z,83.18
2018-04-11T03:21:22.098Z,82.89
2018-04-11T03:22:22.104Z,82.94
2018-04-11T03:23:22.092Z,83.07
2018-04-11T03:24:22.107Z,83.31
2018-04-11T03:25:22.102Z,82.9
2018-04-11T03:26:22.108Z,83.07
2018-04-11T03:27:22.119Z,82.59
2018-04-11T03:28:22.125Z,83.11
2018-04-11T03:29:22.164Z,82.98
2018-04-11T03:30:22.148Z,83.16
2018-04-11T03:31:22.133Z,83.06
2018-04-11T03:32:22.128Z,82.95
2018-04-11T03:33:22.125Z,82.98
2018-04-11T03:34:22.203Z,82.75
2018-04-11T03:35:22.132Z,83.18
2018-04-11T03:36:22.140Z,83.06
2018-04-11T03:37:22.141Z,82.92
2018-04-11T03:38:22.149Z,82.91
2018-04-11T03:39:22.136Z,82.28
2018-04-11T03:40:22.157Z,82.3
2018-04-11T03:41:22.149Z,83.07
2018-04-11T03:42:22.144Z,83.45
2018-04-11T03:43:22.151Z,83.65
2018-04-11T03:44:22.154Z,83.57
2018-04-11T03:45:22.226Z,83.88
2018-04-11T03:46:22.161Z,83.58
2018-04-11T03:47:22.181Z,83.29
2018-04-11T03:48:22.189Z,83.12
2018-04-11T03:49:22.171Z,82.92
2018-04-11T03:50:22.192Z,82.7
2018-04-11T03:51:22.187Z,82.55
2018-04-11T03:52:22.177Z,83.18
2018-04-11T03:53:22.207Z,84
2018-04-11T03:54:22.187Z,83.85
2018-04-11T03:55:22.209Z,83.28
2018-04-11T03:56:22.207Z,83.93
2018-04-11T03:57:22.193Z,83.74
2018-04-11T03:58:22.198Z,83.31
2018-04-11T03:59:22.322Z,82.99
2018-04-11T04:00:22.229Z,83.16
2018-04-11T04:01:22.204Z,82.93
2018-04-11T04:02:22.247Z,82.91
2018-04-11T04:03:22.244Z,83.42
2018-04-11T04:04:22.217Z,83.11
2018-04-11T04:05:22.219Z,83.28
2018-04-11T04:06:22.226Z,83.42
2018-04-11T04:07:22.219Z,83.52
2018-04-11T04:08:22.257Z,83.23
2018-04-11T04:09:22.214Z,83.3
2018-04-11T04:10:22.260Z,83.23
2018-04-11T04:11:22.235Z,83.03
2018-04-11T04:12:22.236Z,83.36
2018-04-11T04:13:22.256Z,83.39
2018-04-11T04:14:22.249Z,84.05
2018-04-11T04:15:22.246Z,83.84
2018-04-11T04:16:22.259Z,83.7
2018-04-11T04:17:22.290Z,84.18
2018-04-11T04:18:22.276Z,84.21
2018-04-11T04:19:22.273Z,84.18
2018-04-11T04:20:22.272Z,84.13
2018-04-11T04:21:22.270Z,84.23
2018-04-11T04:22:22.278Z,84.24
2018-04-11T04:23:22.263Z,84.86
2018-04-11T04:24:22.320Z,84.95
2018-04-11T04:25:22.281Z,84.44
2018-04-11T04:26:22.312Z,84.03
2018-04-11T04:27:22.287Z,84.46
2018-04-11T04:28:22.294Z,83.84
2018-04-11T04:29:22.293Z,84.19
2018-04-11T04:30:22.463Z,84.32
2018-04-11T04:31:22.285Z,84
2018-04-11T04:32:22.289Z,84.39
2018-04-11T04:33:22.288Z,84.53
2018-04-11T04:34:22.301Z,84.73
2018-04-11T04:35:22.314Z,85.44
2018-04-11T04:36:22.323Z,85.28
2018-04-11T04:37:22.301Z,84.6
2018-04-11T04:38:22.308Z,84.81
2018-04-11T04:39:22.312Z,84.78
2018-04-11T04:40:22.340Z,84.74
2018-04-11T04:41:22.335Z,84.95
2018-04-11T04:42:22.321Z,85.24
2018-04-11T04:43:22.328Z,84.97
2018-04-11T04:44:22.349Z,84.66
2018-04-11T04:45:22.341Z,85.05
2018-04-11T04:46:22.351Z,84.7
2018-04-11T04:47:22.605Z,84.83
2018-04-11T04:48:22.362Z,84.8
2018-04-11T04:49:22.356Z,84.8
2018-04-11T04:50:22.353Z,84.5
2018-04-11T04:51:22.369Z,85.07
2018-04-11T04:52:22.351Z,84.76
2018-04-11T04:53:22.356Z,84.48
2018-04-11T04:54:22.395Z,84.7
2018-04-11T04:55:22.349Z,84.75
2018-04-11T04:56:22.410Z,85.23
2018-04-11T04:57:22.369Z,85.35
2018-04-11T04:58:22.515Z,86.03
2018-04-11T04:59:22.377Z,85.8
2018-04-11T05:00:22.395Z,85.75
2018-04-11T05:01:22.392Z,85.84
2018-04-11T05:02:22.376Z,86.12
2018-04-11T05:03:22.469Z,86.15
2018-04-11T05:04:22.400Z,85.82
2018-04-11T05:05:22.405Z,85.88
2018-04-11T05:06:22.411Z,86.29
2018-04-11T05:07:22.423Z,85.82
2018-04-11T05:08:22.443Z,86
2018-04-11T05:09:22.418Z,86.15
2018-04-11T05:10:22.418Z,85.79
2018-04-11T05:11:22.397Z,86.35
2018-04-11T05:12:22.416Z,85.76
2018-04-11T05:13:22.417Z,86.3
2018-04-11T05:14:22.421Z,86.23
2018-04-11T05:15:22.489Z,86.48
2018-04-11T05:16:22.440Z,87.14
2018-04-11T05:17:22.488Z,87.16
2018-04-11T05:18:22.571Z,86.94
2018-04-11T05:19:22.457Z,87.15
2018-04-11T05:20:22.464Z,86.72
2018-04-11T05:21:22.533Z,86.94
2018-04-11T05:22:22.473Z,86.73
2018-04-11T05:23:22.657Z,87.18
2018-04-11T05:24:22.603Z,87.5
2018-04-11T05:25:22.531Z,87.67
2018-04-11T05:26:22.496Z,87.16
2018-04-11T05:27:22.498Z,86.88
2018-04-11T05:28:22.532Z,86.67
2018-04-11T05:29:22.485Z,86.99
2018-04-11T05:30:22.518Z,86.47
2018-04-11T05:31:22.528Z,86.7
2018-04-11T05:32:22.490Z,87.54
2018-04-11T05:33:22.504Z,87.14
2018-04-11T05:34:22.482Z,86.76
2018-04-11T05:35:22.504Z,86.88
2018-04-11T05:36:22.525Z,86.83
2018-04-11T05:37:22.505Z,86.36
2018-04-11T05:38:22.486Z,86.81
2018-04-11T05:39:22.522Z,87.18
2018-04-11T05:40:22.512Z,87.02
2018-04-11T05:41:22.537Z,86.99
2018-04-11T05:42:22.543Z,87.3
2018-04-11T05:43:22.512Z,87.28
2018-04-11T05:44:22.510Z,87.05
2018-04-11T05:45:22.499Z,87.23
2018-04-11T05:46:22.537Z,87.68
2018-04-11T05:47:22.687Z,87.17
2018-04-11T05:48:22.514Z,87.01
2018-04-11T05:49:22.544Z,86.67
2018-04-11T05:50:22.527Z,87.27
2018-04-11T05:51:22.540Z,87.62
2018-04-11T05:52:22.556Z,87.01
2018-04-11T05:53:22.679Z,87.99
2018-04-11T05:54:22.555Z,87.49
2018-04-11T05:55:22.537Z,87.12
2018-04-11T05:56:22.535Z,86.68
2018-04-11T05:57:22.591Z,87.34
2018-04-11T05:58:22.545Z,87.23
2018-04-11T05:59:22.581Z,87.03
2018-04-11T06:00:22.560Z,86.77
2018-04-11T06:01:22.631Z,86.8
2018-04-11T06:02:22.607Z,86.85
2018-04-11T06:03:22.556Z,87.29
2018-04-11T06:04:22.566Z,87.76
2018-04-11T06:05:22.573Z,87.5
2018-04-11T06:06:22.565Z,87.91
2018-04-11T06:07:22.718Z,88.05
2018-04-11T06:08:22.588Z,88.03
2018-04-11T06:09:22.593Z,87.73
2018-04-11T06:10:22.698Z,87.44
2018-04-11T06:11:22.674Z,87.42
2018-04-11T06:12:22.597Z,87.4
2018-04-11T06:13:22.606Z,87.92
2018-04-11T06:14:22.621Z,87.26
2018-04-11T06:15:22.626Z,88.66
2018-04-11T06:16:22.605Z,87.72
2018-04-11T06:17:22.582Z,88.57
2018-04-11T06:18:22.652Z,88.25
2018-04-11T06:19:22.626Z,88.23
2018-04-11T06:20:22.609Z,88.54
2018-04-11T06:21:22.600Z,88.47
2018-04-11T06:22:22.722Z,88.06
2018-04-11T06:23:22.616Z,88.14
2018-04-11T06:24:22.644Z,88.06
2018-04-11T06:25:22.632Z,87.45
2018-04-11T06:26:22.622Z,88.27
2018-04-11T06:27:22.645Z,87.5
2018-04-11T06:28:22.635Z,88.09
2018-04-11T06:29:22.658Z,87.82
2018-04-11T06:30:22.982Z,87.89
2018-04-11T06:31:22.647Z,88.79
2018-04-11T06:32:22.658Z,88.33
2018-04-11T06:33:22.650Z,88.22
2018-04-11T06:34:22.657Z,88.44
2018-04-11T06:35:22.663Z,88.09
2018-04-11T06:36:22.648Z,88.21
2018-04-11T06:37:22.693Z,88.22
2018-04-11T06:38:22.684Z,88.39
2018-04-11T06:39:22.689Z,88.13
2018-04-11T06:40:22.734Z,87.86
2018-04-11T06:41:22.697Z,87.64
2018-04-11T06:42:22.709Z,87.65
2018-04-11T06:43:22.650Z,87.52
2018-04-11T06:44:22.676Z,87.35
2018-04-11T06:45:22.745Z,88.09
2018-04-11T06:46:22.684Z,87.75
2018-04-11T06:47:22.926Z,87.5
2018-04-11T06:48:22.716Z,88.57
2018-04-11T06:49:22.686Z,89.05
2018-04-11T06:50:22.718Z,88.51
2018-04-11T06:51:22.700Z,88.26
2018-04-11T06:52:22.699Z,88.38
2018-04-11T06:53:22.705Z,88.61
2018-04-11T06:54:22.700Z,88.4
2018-04-11T06:55:22.889Z,88.37
2018-04-11T06:56:22.786Z,87.58
2018-04-11T06:57:22.725Z,88.47
2018-04-11T06:58:22.760Z,88.19
2018-04-11T06:59:22.888Z,87.93
2018-04-11T07:00:22.723Z,88.37
2018-04-11T07:01:22.702Z,87.98
2018-04-11T07:02:22.748Z,88.07
2018-04-11T07:03:22.820Z,88.6
2018-04-11T07:04:22.737Z,88.43
2018-04-11T07:05:22.733Z,88.36
2018-04-11T07:06:22.741Z,87.93
2018-04-11T07:07:22.855Z,87.79
2018-04-11T07:08:22.739Z,87.03
2018-04-11T07:09:22.764Z,87.61
2018-04-11T07:10:22.754Z,87.66
2018-04-11T07:11:22.760Z,86.84
2018-04-11T07:12:22.757Z,87.35
2018-04-11T07:13:22.802Z,87.15
2018-04-11T07:14:22.759Z,87.14
2018-04-11T07:15:22.814Z,87.47
2018-04-11T07:16:22.759Z,87.59
2018-04-11T07:17:22.773Z,87.37
2018-04-11T07:18:22.824Z,86.92
2018-04-11T07:19:22.762Z,87.43
2018-04-11T07:20:22.823Z,86.59
2018-04-11T07:21:22.791Z,87.15
2018-04-11T07:22:22.786Z,86.43
2018-04-11T07:23:22.858Z,85.33
2018-04-11T07:24:22.796Z,85.77
2018-04-11T07:25:22.803Z,86.03
2018-04-11T07:26:22.816Z,86.05
2018-04-11T07:27:22.787Z,85.06
2018-04-11T07:28:22.792Z,85.41
2018-04-11T07:29:22.839Z,85.47
2018-04-11T07:30:22.795Z,84.58
2018-04-11T07:31:22.822Z,84.97
2018-04-11T07:32:22.917Z,84.97
2018-04-11T07:33:22.826Z,85.26
2018-04-11T07:34:22.839Z,85
2018-04-11T07:35:22.832Z,85.18
2018-04-11T07:36:22.827Z,85.18
2018-04-11T07:37:22.820Z,85.26
2018-04-11T07:38:22.814Z,84.06
2018-04-11T07:39:22.821Z,85.39
2018-04-11T07:40:23.005Z,84.52
2018-04-11T07:41:22.818Z,82.7
2018-04-11T07:42:22.825Z,83.07
2018-04-11T07:43:22.840Z,83.26
2018-04-11T07:44:22.841Z,82.54
2018-04-11T07:45:22.853Z,82.96
2018-04-11T07:46:22.844Z,83.02
2018-04-11T07:47:22.849Z,82.4
2018-04-11T07:48:22.855Z,81.75
2018-04-11T07:49:22.856Z,82.16
2018-04-11T07:50:22.855Z,81.57
2018-04-11T07:51:22.852Z,81.41
2018-04-11T07:52:22.868Z,80.75
2018-04-11T07:53:22.878Z,80.89
2018-04-11T07:54:22.875Z,81.31
2018-04-11T07:55:22.860Z,80.78
2018-04-11T07:56:22.858Z,80.74
2018-04-11T07:57:22.908Z,79.86
2018-04-11T07:58:22.890Z,80.74
2018-04-11T07:59:22.864Z,80.86
2018-04-11T08:00:22.876Z,81.2
2018-04-11T08:01:22.875Z,81.39
2018-04-11T08:02:22.989Z,80.98
2018-04-11T08:03:23.574Z,80.49
2018-04-11T08:04:22.928Z,80.7
2018-04-11T08:05:22.931Z,81.15
2018-04-11T08:06:22.992Z,81.76
2018-04-11T08:07:22.934Z,81.64
2018-04-11T08:08:22.923Z,82.44
2018-04-11T08:09:22.908Z,80.31
2018-04-11T08:10:25.209Z,80.65
2018-04-11T08:11:22.927Z,78.29
2018-04-11T08:12:22.926Z,77.3
2018-04-11T08:13:22.958Z,77.57
2018-04-11T08:14:22.964Z,78.01
2018-04-11T08:15:22.947Z,77.32
2018-04-11T08:16:23.085Z,77.73
2018-04-11T08:17:22.948Z,78.63
2018-04-11T08:18:22.973Z,78.16
2018-04-11T08:19:22.949Z,78.35
2018-04-11T08:20:22.979Z,78.13
2018-04-11T08:21:22.961Z,78.07
2018-04-11T08:22:23.065Z,79.28
2018-04-11T08:23:22.977Z,79.53
2018-04-11T08:24:22.971Z,81.15
2018-04-11T08:25:22.970Z,82.05
2018-04-11T08:26:22.968Z,81
2018-04-11T08:27:22.965Z,79.38
2018-04-11T08:28:22.966Z,77.85
2018-04-11T08:29:23.055Z,77.72
2018-04-11T08:30:22.979Z,77.82
2018-04-11T08:31:23.028Z,77.52
2018-04-11T08:32:22.983Z,77.49
2018-04-11T08:33:22.967Z,78.05
2018-04-11T08:34:22.992Z,76.42
2018-04-11T08:35:23.029Z,76.24
2018-04-11T08:36:22.985Z,76.47
2018-04-11T08:37:23.119Z,75.1
2018-04-11T08:38:23.166Z,75.23
2018-04-11T08:39:23.013Z,74.97
2018-04-11T08:40:22.994Z,75.67
2018-04-11T08:41:23.003Z,74.16
2018-04-11T08:42:23.025Z,75.1
2018-04-11T08:43:23.065Z,74.73
2018-04-11T08:44:23.039Z,74.23
2018-04-11T08:45:23.000Z,73.93
2018-04-11T08:46:23.006Z,73.54
2018-04-11T08:47:23.188Z,73.21
2018-04-11T08:48:23.050Z,72.78
2018-04-11T08:49:23.054Z,71.62
2018-04-11T08:50:23.044Z,72.12
2018-04-11T08:51:23.046Z,72.41
2018-04-11T08:52:23.032Z,72.48
2018-04-11T08:53:23.068Z,73.23
2018-04-11T08:54:23.051Z,72.99
2018-04-11T08:55:23.042Z,73.73
2018-04-11T08:56:23.043Z,71.76
2018-04-11T08:57:23.121Z,73.21
2018-04-11T08:58:23.078Z,73.07
2018-04-11T08:59:23.053Z,72.75
2018-04-11T09:00:23.058Z,74.05
2018-04-11T09:01:23.056Z,73.23
2018-04-11T09:02:23.104Z,73.38
2018-04-11T09:03:23.096Z,74.4
2018-04-11T09:04:23.080Z,72.44
2018-04-11T09:05:23.270Z,73.29
2018-04-11T09:06:23.135Z,71.74
2018-04-11T09:07:23.098Z,71.41
2018-04-11T09:08:23.155Z,71.6
2018-04-11T09:09:23.092Z,71.65
2018-04-11T09:10:23.112Z,70.54
2018-04-11T09:11:23.118Z,70.87
2018-04-11T09:12:23.094Z,70.63
2018-04-11T09:13:23.156Z,70.76
2018-04-11T09:14:23.128Z,71.52
2018-04-11T09:15:23.111Z,71.7
2018-04-11T09:16:23.120Z,70.77
2018-04-11T09:17:23.122Z,69.52
2018-04-11T09:18:23.148Z,69.69
2018-04-11T09:19:23.167Z,70.27
2018-04-11T09:20:23.146Z,70.55
2018-04-11T09:21:23.116Z,69.71
2018-04-11T09:22:23.124Z,69.97
2018-04-11T09:23:23.179Z,69.58
2018-04-11T09:24:23.122Z,69.26
2018-04-11T09:25:23.238Z,68.74
2018-04-11T09:26:23.162Z,69.28
2018-04-11T09:27:23.131Z,69.69
2018-04-11T09:28:23.178Z,70.27
2018-04-11T09:29:23.175Z,68.38
2018-04-11T09:30:23.163Z,67.67
2018-04-11T09:31:23.151Z,67.13
2018-04-11T09:32:23.165Z,67.56
2018-04-11T09:33:23.195Z,67.21
2018-04-11T09:34:23.195Z,65.89
2018-04-11T09:35:23.168Z,67.26
2018-04-11T09:36:23.169Z,66.64
2018-04-11T09:37:23.199Z,68.4
2018-04-11T09:38:23.186Z,69.64
2018-04-11T09:39:23.174Z,68.78
2018-04-11T09:40:23.184Z,67.27
2018-04-11T09:41:23.179Z,67.22
2018-04-11T09:42:23.190Z,66.74
2018-04-11T09:43:23.257Z,65.73
2018-04-11T09:44:23.305Z,66.57
2018-04-11T09:45:23.212Z,66.81
2018-04-11T09:46:23.218Z,67.2
2018-04-11T09:47:23.210Z,67.67
2018-04-11T09:48:23.238Z,67.88
2018-04-11T09:49:23.232Z,68.21
2018-04-11T09:50:23.226Z,67.73
2018-04-11T09:51:23.216Z,67.54
2018-04-11T09:52:23.372Z,66.98
2018-04-11T09:53:23.266Z,66.45
2018-04-11T09:54:23.216Z,66.99
2018-04-11T09:55:23.294Z,65.49
2018-04-11T09:56:23.235Z,65.29
2018-04-11T09:57:23.231Z,67.17
2018-04-11T09:58:23.236Z,67.45
2018-04-11T09:59:23.234Z,67.99
2018-04-11T10:00:23.533Z,68.48
2018-04-11T10:01:23.260Z,66.7
2018-04-11T10:02:23.266Z,62.88
2018-04-11T10:03:23.261Z,64.44
2018-04-11T10:04:23.266Z,63.9
2018-04-11T10:05:23.247Z,62.97
2018-04-11T10:06:23.257Z,61.23
2018-04-11T10:07:23.277Z,60.38
2018-04-11T10:08:23.279Z,60.29
2018-04-11T10:09:23.274Z,60.62
2018-04-11T10:10:23.289Z,62.36
2018-04-11T10:11:23.260Z,61.92
2018-04-11T10:12:23.279Z,62.19
2018-04-11T10:13:23.306Z,58.71
2018-04-11T10:14:23.297Z,57.57
2018-04-11T10:15:23.305Z,58.8
2018-04-11T10:16:23.277Z,60.85
2018-04-11T10:17:23.299Z,61.81
2018-04-11T10:18:23.288Z,59.59
2018-04-11T10:19:23.288Z,59.87
2018-04-11T10:20:23.300Z,59.33
2018-04-11T10:21:23.331Z,60.19
2018-04-11T10:22:23.310Z,61.29
2018-04-11T10:23:23.353Z,60.61
2018-04-11T10:24:23.309Z,60.39
2018-04-11T10:25:23.318Z,62.38
2018-04-11T10:26:23.333Z,59.26
2018-04-11T10:27:23.329Z,59.81
2018-04-11T10:28:23.354Z,60.24
2018-04-11T10:29:23.325Z,61.78
2018-04-11T10:30:23.348Z,62.74
2018-04-11T10:31:23.338Z,60.42
2018-04-11T10:32:23.333Z,58.63
2018-04-11T10:33:23.413Z,59.11
2018-04-11T10:34:23.377Z,57.07
2018-04-11T10:35:23.341Z,56.95
2018-04-11T10:36:23.365Z,55.27
2018-04-11T10:37:23.334Z,56.95
2018-04-11T10:38:23.340Z,57.13
2018-04-11T10:39:23.351Z,58.04
2018-04-11T10:40:23.386Z,55.27
2018-04-11T10:41:23.364Z,55.93
2018-04-11T10:42:23.375Z,56.03
2018-04-11T10:43:23.372Z,56.22
2018-04-11T10:44:23.374Z,56.51
2018-04-11T10:45:23.390Z,55.84
2018-04-11T10:46:23.384Z,56
2018-04-11T10:47:23.382Z,56.38
2018-04-11T10:48:23.380Z,55.7
2018-04-11T10:49:23.393Z,55.7
2018-04-11T10:50:23.391Z,54.37
2018-04-11T10:51:23.380Z,55.82
2018-04-11T10:52:23.388Z,55.38
2018-04-11T10:53:23.642Z,55.66
2018-04-11T10:54:23.401Z,56.5
2018-04-11T10:55:23.430Z,55.91
2018-04-11T10:56:23.388Z,53.23
2018-04-11T10:57:23.423Z,54.83
2018-04-11T10:58:23.606Z,54.65
2018-04-11T10:59:23.422Z,53.07
2018-04-11T11:00:23.437Z,50.97
2018-04-11T11:01:23.419Z,50.99
2018-04-11T11:02:23.427Z,51.74
2018-04-11T11:03:23.462Z,50.34
2018-04-11T11:04:23.407Z,49.51
2018-04-11T11:05:23.432Z,48.16
2018-04-11T11:06:23.420Z,48.55
2018-04-11T11:07:23.436Z,51.87
2018-04-11T11:08:23.590Z,47.17
2018-04-11T11:09:23.435Z,45.65
2018-04-11T11:10:23.451Z,48.26
2018-04-11T11:11:23.435Z,45.55
2018-04-11T11:12:23.451Z,44.71
2018-04-11T11:13:23.534Z,46.83
2018-04-11T11:14:23.454Z,47.84
2018-04-11T11:15:23.494Z,45.97
2018-04-11T11:16:23.637Z,46.35
2018-04-11T11:17:23.444Z,48.47
2018-04-11T11:18:23.536Z,49.67
2018-04-11T11:19:23.492Z,48.2
2018-04-11T11:20:23.520Z,48.19
2018-04-11T11:21:23.551Z,44.15
2018-04-11T11:22:23.483Z,45.35
2018-04-11T11:23:23.484Z,47.32
2018-04-11T11:24:23.485Z,48.66
2018-04-11T11:25:23.516Z,47.49
2018-04-11T11:26:23.507Z,48.06
2018-04-11T11:27:23.485Z,48.91
2018-04-11T11:28:23.522Z,48.91
2018-04-11T11:29:23.484Z,48.72
2018-04-11T11:30:23.533Z,48.05
2018-04-11T11:31:23.511Z,47.71
2018-04-11T11:32:23.495Z,45.47
2018-04-11T11:33:23.524Z,45
2018-04-11T11:34:23.583Z,45.86
2018-04-11T11:35:23.510Z,45.32
2018-04-11T11:36:23.510Z,45.84
2018-04-11T11:37:23.570Z,45.56
2018-04-11T11:38:23.730Z,46.21
2018-04-11T11:39:23.527Z,46.92
2018-04-11T11:40:23.532Z,46.52
2018-04-11T11:41:23.551Z,44.45
2018-04-11T11:42:23.543Z,44.61
2018-04-11T11:43:23.584Z,44.75
2018-04-11T11:44:23.537Z,43.81
2018-04-11T11:45:23.562Z,43.87
2018-04-11T11:46:23.555Z,44.33
2018-04-11T11:47:23.566Z,44.52
2018-04-11T11:48:23.641Z,45.07
2018-04-11T11:49:23.596Z,45.3
2018-04-11T11:50:23.577Z,44.54
2018-04-11T11:51:23.597Z,43.86
2018-04-11T11:52:23.574Z,45.21
2018-04-11T11:53:23.682Z,45.73
2018-04-11T11:54:23.571Z,44.79
2018-04-11T11:55:23.576Z,43.88
2018-04-11T11:56:23.692Z,43.48
2018-04-11T11:57:23.873Z,44.31
2018-04-11T11:58:23.588Z,43.99
2018-04-11T11:59:23.584Z,44.91
2018-04-11T12:00:23.662Z,46.14
2018-04-11T12:01:23.618Z,45.05
2018-04-11T12:02:23.600Z,45.85
2018-04-11T12:03:23.616Z,46.09
2018-04-11T12:04:23.632Z,45.62
2018-04-11T12:05:23.606Z,46.03
2018-04-11T12:06:23.608Z,47.93
2018-04-11T12:07:23.622Z,44.68
2018-04-11T12:08:23.619Z,43.27
2018-04-11T12:09:23.627Z,43.59
2018-04-11T12:10:23.628Z,43.97
2018-04-11T12:11:23.643Z,45.11
2018-04-11T12:12:23.619Z,44.94
2018-04-11T12:13:23.684Z,46.79
2018-04-11T12:14:23.655Z,44.08
2018-04-11T12:15:23.649Z,43.55
2018-04-11T12:16:23.630Z,44.03
2018-04-11T12:17:23.773Z,44.03
2018-04-11T12:18:23.637Z,43.76
2018-04-11T12:19:23.960Z,44.37
2018-04-11T12:20:23.744Z,44.59
2018-04-11T12:21:23.679Z,45.01
2018-04-11T12:22:23.710Z,44.48
2018-04-11T12:23:23.717Z,45.14
2018-04-11T12:24:23.711Z,45.38
2018-04-11T12:25:23.671Z,45.35
2018-04-11T12:26:23.716Z,44.73
2018-04-11T12:27:23.703Z,45.35
2018-04-11T12:28:23.789Z,45.46
2018-04-11T12:29:23.717Z,45.02
2018-04-11T12:30:23.698Z,44.39
2018-04-11T12:31:23.710Z,44.46
2018-04-11T12:32:23.765Z,43.72
2018-04-11T12:33:23.710Z,44.52
2018-04-11T12:34:23.697Z,40.43
2018-04-11T12:35:23.703Z,43.35
2018-04-11T12:36:23.731Z,44.06
2018-04-11T12:37:23.984Z,42.58
2018-04-11T12:38:23.713Z,43.4
2018-04-11T12:39:23.762Z,43.02
2018-04-11T12:40:23.799Z,42
2018-04-11T12:41:23.751Z,43.45
2018-04-11T12:42:23.834Z,42.91
2018-04-11T12:43:23.778Z,40.06
2018-04-11T12:44:23.778Z,38.57
2018-04-11T12:45:23.762Z,39.55
2018-04-11T12:46:23.765Z,40.52
2018-04-11T12:47:23.733Z,40.2
2018-04-11T12:48:23.852Z,39.68
2018-04-11T12:49:23.798Z,38.83
2018-04-11T12:50:23.776Z,39.82
2018-04-11T12:51:23.745Z,39.46
2018-04-11T12:52:23.744Z,39.45
2018-04-11T12:53:23.761Z,39.9
2018-04-11T12:54:23.798Z,39.81
2018-04-11T12:55:23.754Z,40.68